createdAt,value
2023-03-07T00:00:45.472Z,39.63
2023-03-07T00:05:43.930Z,21.40
2023-03-07T00:10:43.685Z,32.93
2023-03-07T00:15:41.883Z,21.90
2023-03-07T00:20:40.123Z,25.77
2023-03-07T00:25:38.339Z,29.40
2023-03-07T00:30:38.771Z,63.27
2023-03-07T00:35:37.090Z,24.83
2023-03-07T00:40:35.345Z,37.33
2023-03-07T00:45:33.428Z,36.07
2023-03-07T00:50:33.069Z,34.40
2023-03-07T00:55:31.488Z,36.37
2023-03-07T01:00:29.974Z,23.17
2023-03-07T01:05:28.204Z,35.53
2023-03-07T01:10:29.494Z,44.50
2023-03-07T01:15:28.156Z,58.07
2023-03-07T01:20:26.853Z,53.43
2023-03-07T01:25:25.372Z,52.27
2023-03-07T01:30:25.841Z,58.13
2023-03-07T01:35:24.361Z,46.87
2023-03-07T01:40:25.386Z,37.20
2023-03-07T01:46:02.199Z,62.10
2023-03-07T01:51:02.204Z,52.93
2023-03-07T01:56:01.635Z,48.93
2023-03-07T02:01:00.610Z,84.47
2023-03-07T02:06:03.041Z,45.10
2023-03-07T02:11:01.342Z,40.83
2023-03-07T02:16:02.164Z,45.47
2023-03-07T02:21:12.370Z,44.97
2023-03-07T02:26:15.598Z,48.87
2023-03-07T02:31:16.025Z,41.70
2023-03-07T02:36:17.326Z,47.47
2023-03-07T02:41:35.120Z,43.20
2023-03-07T02:46:40.281Z,51.67
2023-03-07T02:51:38.618Z,45.67
2023-03-07T02:56:37.484Z,45.67
2023-03-07T03:01:36.256Z,46.43
2023-03-07T03:06:36.029Z,47.90
2023-03-07T03:11:34.388Z,41.40
2023-03-07T03:16:32.876Z,43.17
2023-03-07T03:21:31.245Z,46.33
2023-03-07T03:26:33.353Z,47.17
2023-03-07T03:31:32.089Z,45.37
2023-03-07T03:36:32.086Z,44.23
2023-03-07T03:41:36.067Z,44.50
2023-03-07T03:46:34.116Z,48.33
2023-03-07T03:51:33.533Z,42.57
2023-03-07T03:56:32.130Z,41.70
2023-03-07T04:01:31.903Z,41.77
2023-03-07T04:06:32.140Z,47.57
2023-03-07T04:11:30.883Z,37.77
2023-03-07T04:16:29.401Z,44.27
2023-03-07T04:21:29.150Z,37.80
2023-03-07T04:26:29.501Z,39.40
2023-03-07T04:31:29.848Z,34.17
2023-03-07T04:36:31.829Z,40.47
2023-03-07T04:41:30.332Z,35.20
2023-03-07T04:46:33.238Z,43.40
2023-03-07T04:51:33.175Z,37.80
2023-03-07T04:56:31.285Z,42.17
2023-03-07T05:01:30.413Z,41.97
2023-03-07T05:06:30.227Z,39.30
2023-03-07T05:11:30.482Z,34.47
2023-03-07T05:16:28.719Z,34.47
2023-03-07T05:21:27.281Z,37.50
2023-03-07T05:26:25.553Z,35.87
2023-03-07T05:31:25.550Z,34.60
2023-03-07T05:36:23.900Z,37.67
2023-03-07T05:41:22.222Z,29.40
2023-03-07T05:46:20.900Z,39.77
2023-03-07T05:51:20.652Z,30.50
2023-03-07T05:56:19.586Z,36.97
2023-03-07T06:01:18.301Z,34.10
2023-03-07T06:06:16.539Z,31.33
2023-03-07T06:11:16.758Z,33.53
2023-03-07T06:16:15.168Z,33.33
2023-03-07T06:21:17.297Z,28.47
2023-03-07T06:26:18.650Z,31.50
2023-03-07T06:31:21.675Z,32.03
2023-03-07T06:36:21.335Z,30.30
2023-03-07T06:41:27.236Z,29.20
2023-03-07T06:46:27.772Z,29.70
2023-03-07T06:51:26.938Z,25.03
2023-03-07T06:56:30.432Z,30.00
2023-03-07T07:01:30.557Z,27.50
2023-03-07T07:06:31.446Z,25.10
2023-03-07T07:11:31.142Z,27.47
2023-03-07T07:16:33.708Z,23.70
2023-03-07T07:21:32.201Z,27.40
2023-03-07T07:26:31.904Z,25.07
2023-03-07T07:31:31.451Z,24.27
2023-03-07T07:36:30.057Z,26.43
2023-03-07T07:41:29.497Z,24.00
2023-03-07T07:46:29.969Z,28.30
2023-03-07T07:51:28.987Z,22.83
2023-03-07T07:56:27.565Z,27.03
2023-03-07T08:01:27.251Z,25.33
2023-03-07T08:06:29.511Z,22.07
2023-03-07T08:11:28.088Z,25.07
2023-03-07T08:16:26.419Z,23.90
2023-03-07T08:21:26.692Z,17.60
2023-03-07T08:26:25.501Z,20.57
2023-03-07T08:31:25.521Z,21.20
2023-03-07T08:36:23.754Z,22.87
2023-03-07T08:41:24.467Z,20.17
2023-03-07T08:46:23.666Z,16.90
2023-03-07T08:51:22.072Z,18.10
2023-03-07T08:56:22.205Z,19.43
2023-03-07T09:01:20.600Z,20.27
2023-03-07T09:06:20.928Z,15.77
2023-03-07T09:11:21.798Z,21.33
2023-03-07T09:16:22.062Z,16.07
2023-03-07T09:21:20.173Z,14.87
2023-03-07T09:26:18.594Z,15.43
2023-03-07T09:31:17.492Z,17.53
2023-03-07T09:36:17.984Z,13.27
2023-03-07T09:41:31.605Z,13.53
2023-03-07T09:46:41.257Z,16.20
2023-03-07T09:51:43.475Z,11.53
2023-03-07T09:56:44.780Z,10.90
2023-03-07T10:01:45.379Z,13.93
2023-03-07T10:06:54.207Z,14.40
2023-03-07T10:12:19.324Z,11.93
2023-03-07T10:17:23.201Z,10.57
2023-03-07T10:22:31.945Z,9.70
2023-03-07T10:27:32.134Z,10.87
2023-03-07T10:32:35.087Z,9.80
2023-03-07T10:37:46.494Z,12.70
2023-03-07T10:42:44.580Z,10.63
2023-03-07T10:47:43.023Z,10.07
2023-03-07T10:52:48.694Z,13.60
2023-03-07T10:57:46.783Z,9.07
2023-03-07T11:02:48.822Z,8.27
2023-03-07T11:07:48.506Z,11.27
2023-03-07T11:12:47.403Z,7.50
2023-03-07T11:17:48.392Z,6.00
2023-03-07T11:22:48.016Z,9.10
2023-03-07T11:27:52.653Z,7.73
2023-03-07T11:33:02.915Z,4.70
2023-03-07T11:38:10.803Z,5.67
2023-03-07T11:43:20.723Z,3.20
2023-03-07T11:48:36.292Z,3.60
2023-03-07T11:53:50.162Z,3.70
2023-03-07T11:59:27.844Z,4.30
2023-03-07T12:04:52.889Z,4.13
2023-03-07T12:09:57.661Z,3.20
2023-03-07T12:15:06.145Z,2.50
2023-03-07T12:20:31.445Z,3.57
2023-03-07T12:25:36.168Z,5.30
2023-03-07T12:30:45.443Z,3.37
2023-03-07T12:35:46.470Z,1.93
2023-03-07T12:40:52.250Z,4.10
2023-03-07T12:45:55.052Z,2.17
2023-03-07T12:51:01.059Z,2.47
2023-03-07T12:56:07.374Z,1.40
2023-03-07T13:01:14.914Z,1.13
2023-03-07T13:06:17.978Z,3.40
2023-03-07T13:11:23.068Z,7.10
2023-03-07T13:16:45.188Z,3.60
2023-03-07T13:21:43.497Z,2.60
2023-03-07T13:26:43.604Z,1.30
2023-03-07T13:31:46.631Z,2.10
2023-03-07T13:36:44.983Z,3.13
2023-03-07T13:41:49.866Z,3.37
2023-03-07T13:46:51.265Z,2.20
2023-03-07T13:52:31.527Z,2.87
2023-03-07T13:57:37.975Z,1.53
2023-03-07T14:02:37.245Z,2.30
2023-03-07T14:07:41.331Z,1.83
2023-03-07T14:12:55.698Z,5.27
2023-03-07T14:18:13.530Z,2.27
2023-03-07T14:23:23.519Z,2.30
2023-03-07T14:28:26.830Z,1.67
2023-03-07T14:33:31.725Z,4.80
2023-03-07T14:38:30.540Z,1.73
2023-03-07T14:43:44.654Z,4.17
2023-03-07T14:49:02.118Z,1.60
2023-03-07T14:54:06.817Z,1.67
2023-03-07T14:59:10.833Z,6.20
2023-03-07T15:04:24.917Z,2.83
2023-03-07T15:09:24.012Z,1.77
2023-03-07T15:14:27.380Z,2.50
2023-03-07T15:19:33.880Z,1.73
2023-03-07T15:24:35.268Z,2.93
2023-03-07T15:29:35.413Z,1.30
2023-03-07T15:34:35.278Z,4.30
2023-03-07T15:39:34.897Z,1.80
2023-03-07T15:44:35.240Z,1.67
2023-03-07T15:49:42.329Z,1.60
2023-03-07T15:54:43.366Z,2.00
2023-03-07T15:59:48.313Z,2.60
2023-03-07T16:04:46.676Z,3.10
2023-03-07T16:09:44.913Z,1.77
2023-03-07T16:14:45.036Z,5.20
2023-03-07T16:19:43.109Z,1.50
2023-03-07T16:24:41.599Z,2.70
2023-03-07T16:29:39.786Z,3.33
2023-03-07T16:34:39.377Z,2.50
2023-03-07T16:39:38.030Z,3.00
2023-03-07T16:44:40.518Z,3.07
2023-03-07T16:49:40.161Z,2.90
2023-03-07T16:54:38.421Z,5.30
2023-03-07T16:59:39.313Z,2.07
2023-03-07T17:04:38.861Z,2.40
2023-03-07T17:09:37.114Z,3.03
2023-03-07T17:14:36.205Z,2.60
2023-03-07T17:19:35.139Z,3.37
2023-03-07T17:24:34.767Z,2.40
2023-03-07T17:29:36.526Z,4.90
2023-03-07T17:34:37.013Z,8.13
2023-03-07T17:39:36.780Z,2.70
2023-03-07T17:44:34.994Z,4.53
2023-03-07T17:49:38.503Z,3.40
2023-03-07T17:54:39.006Z,4.53
2023-03-07T17:59:37.314Z,7.23
2023-03-07T18:04:35.501Z,5.17
2023-03-07T18:09:33.793Z,4.07
2023-03-07T18:14:33.507Z,4.70
2023-03-07T18:19:32.557Z,4.63
2023-03-07T18:24:31.096Z,7.30
2023-03-07T18:29:30.242Z,5.60
2023-03-07T18:34:29.902Z,3.20
2023-03-07T18:39:28.166Z,3.47
2023-03-07T18:44:26.418Z,4.70
2023-03-07T18:49:24.625Z,8.33
2023-03-07T18:54:24.290Z,3.87
2023-03-07T18:59:22.512Z,4.03
2023-03-07T19:09:37.900Z,5.13
2023-03-07T19:14:36.149Z,6.40
2023-03-07T19:19:36.732Z,6.17
2023-03-07T19:24:37.745Z,5.70
2023-03-07T19:29:36.755Z,4.90
2023-03-07T19:34:35.252Z,8.13
2023-03-07T19:39:33.563Z,6.90
2023-03-07T19:44:33.200Z,8.70
2023-03-07T19:49:31.385Z,13.93
2023-03-07T19:54:29.918Z,14.63
2023-03-07T19:59:28.070Z,8.07
2023-03-07T20:04:27.812Z,8.00
2023-03-07T20:09:26.049Z,10.80
2023-03-07T20:14:24.282Z,7.70
2023-03-07T20:19:22.996Z,13.60
2023-03-07T20:24:22.988Z,6.67
2023-03-07T20:29:21.570Z,8.10
2023-03-07T20:34:21.782Z,11.93
2023-03-07T20:39:22.845Z,10.77
2023-03-07T20:44:21.870Z,7.00
2023-03-07T20:49:20.474Z,7.47
2023-03-07T20:54:19.981Z,7.80
2023-03-07T20:59:21.407Z,9.47
2023-03-07T21:04:21.186Z,10.37
2023-03-07T21:09:20.004Z,8.87
2023-03-07T21:14:20.548Z,9.60
2023-03-07T21:19:18.988Z,10.20
2023-03-07T21:24:17.214Z,9.43
2023-03-07T21:29:16.046Z,8.87
2023-03-07T21:34:15.838Z,7.47
2023-03-07T21:39:14.137Z,7.97
2023-03-07T21:44:12.349Z,8.70
2023-03-07T21:49:10.558Z,8.37
2023-03-07T21:54:09.996Z,9.53
2023-03-07T21:59:08.285Z,8.07
2023-03-07T22:04:06.508Z,7.53
2023-03-07T22:09:05.793Z,7.97
2023-03-07T22:14:05.432Z,3.70
2023-03-07T22:19:03.701Z,5.50
2023-03-07T22:24:02.023Z,11.50
2023-03-07T22:29:00.713Z,5.27
2023-03-07T22:34:00.903Z,6.90
2023-03-07T22:38:59.120Z,9.33
2023-03-07T22:43:57.663Z,4.27
2023-03-07T22:48:57.416Z,8.03
2023-03-07T22:53:57.013Z,5.50
2023-03-07T22:58:55.353Z,4.40
2023-03-07T23:03:55.112Z,6.50
2023-03-07T23:08:54.316Z,2.77
2023-03-07T23:13:54.344Z,2.70
2023-03-07T23:18:55.074Z,3.77
2023-03-07T23:23:54.688Z,6.47
2023-03-07T23:28:54.621Z,7.23
2023-03-07T23:33:57.108Z,5.50
2023-03-07T23:38:55.503Z,2.83
2023-03-07T23:43:55.582Z,2.13
2023-03-07T23:48:54.720Z,7.43
2023-03-07T23:53:52.997Z,4.93
2023-03-07T23:58:51.765Z,4.23
